Time;durP1;ratioP1;P1;durP2;ratioP2;P2;SDS_P1;SDS_P2;PMS_P1;PMS_P2;Temp;Humidity;BMP_temperature;BMP_pressure;BME280_temperature;BME280_humidity;BME280_pressure;Samples;Min_cycle;Max_cycle;Signal;HPM_P1;HPM_P2
2023/12/28 00:01:21;;;;;;;6.57;3.80;;;8.80;99.90;;;;;;5037401;28;20045;-78
2023/12/28 00:03:47;;;;;;;6.13;3.83;;;8.70;99.90;;;;;;5032721;28;20552;-79
2023/12/28 00:06:13;;;;;;;7.00;4.20;;;8.80;99.90;;;;;;5037170;28;20046;-78
2023/12/28 00:08:40;;;;;;;6.00;3.90;;;8.90;99.90;;;;;;5037895;28;20034;-78
2023/12/28 00:11:06;;;;;;;4.80;4.40;;;8.90;99.90;;;;;;5033228;28;20030;-79
2023/12/28 00:13:31;;;;;;;5.37;4.10;;;8.90;99.90;;;;;;5037046;28;20061;-78
2023/12/28 00:15:57;;;;;;;5.90;4.33;;;8.90;99.90;;;;;;5029518;28;20050;-79
2023/12/28 00:18:23;;;;;;;5.83;4.00;;;8.90;99.90;;;;;;5035887;28;20056;-79
2023/12/28 00:20:49;;;;;;;4.77;4.27;;;9.00;99.90;;;;;;5017833;28;20041;-79
2023/12/28 00:23:15;;;;;;;5.40;4.43;;;9.00;99.90;;;;;;5037038;28;20045;-78
2023/12/28 00:25:41;;;;;;;4.80;4.30;;;9.20;99.90;;;;;;5037326;28;20052;-79
2023/12/28 00:28:06;;;;;;;8.63;4.90;;;9.20;99.90;;;;;;5036376;28;20042;-78
2023/12/28 00:30:32;;;;;;;6.43;4.73;;;9.20;99.90;;;;;;5041136;28;20057;-79
2023/12/28 00:32:58;;;;;;;7.50;4.57;;;9.20;99.90;;;;;;5029971;28;20042;-78
2023/12/28 00:35:24;;;;;;;5.07;4.30;;;9.20;99.90;;;;;;5019437;28;20493;-77
2023/12/28 00:37:49;;;;;;;6.63;4.93;;;9.30;99.90;;;;;;5035952;28;20446;-78
2023/12/28 00:40:15;;;;;;;7.70;5.13;;;9.30;99.90;;;;;;5038061;28;20099;-80
2023/12/28 00:42:41;;;;;;;6.47;4.47;;;9.30;99.90;;;;;;5036358;28;20095;-79
2023/12/28 00:45:08;;;;;;;7.27;4.70;;;9.30;99.90;;;;;;5033026;28;20041;-80
2023/12/28 00:47:34;;;;;;;8.57;4.60;;;9.30;99.90;;;;;;4993573;28;20046;-80
2023/12/28 00:49:59;;;;;;;8.47;5.03;;;9.30;99.90;;;;;;5013005;28;20311;-79
2023/12/28 00:52:25;;;;;;;6.77;4.90;;;9.30;99.90;;;;;;5037429;28;20046;-80
2023/12/28 00:54:51;;;;;;;6.00;4.47;;;9.30;99.90;;;;;;5036503;28;20421;-80
2023/12/28 00:57:16;;;;;;;7.27;5.00;;;9.40;99.90;;;;;;5016276;28;20052;-79
2023/12/28 00:59:43;;;;;;;7.93;5.20;;;9.40;99.90;;;;;;5035246;28;20108;-80
2023/12/28 01:02:09;;;;;;;8.10;4.97;;;9.30;99.90;;;;;;5030920;28;20046;-79
2023/12/28 01:04:35;;;;;;;7.63;5.17;;;9.40;99.90;;;;;;5019352;28;20049;-80
2023/12/28 01:07:02;;;;;;;7.33;5.00;;;9.40;99.90;;;;;;5013046;28;20530;-80
2023/12/28 01:09:28;;;;;;;7.90;4.40;;;9.30;99.90;;;;;;5038335;28;20079;-80
2023/12/28 01:11:54;;;;;;;6.60;4.67;;;9.40;99.90;;;;;;5029705;28;20119;-80
2023/12/28 01:14:19;;;;;;;8.13;4.77;;;9.30;99.90;;;;;;5018158;28;20053;-80
2023/12/28 01:16:45;;;;;;;6.70;4.60;;;9.30;99.90;;;;;;5036125;28;20296;-80
2023/12/28 01:19:11;;;;;;;7.27;4.77;;;9.30;99.90;;;;;;5036750;28;20069;-79
2023/12/28 01:21:37;;;;;;;7.23;5.00;;;9.20;99.90;;;;;;5038094;28;20041;-78
2023/12/28 01:24:03;;;;;;;7.40;4.87;;;9.30;99.90;;;;;;5031518;28;20044;-79
2023/12/28 01:26:28;;;;;;;10.87;5.20;;;9.20;99.90;;;;;;5033933;28;20045;-79
2023/12/28 01:28:54;;;;;;;7.27;4.53;;;9.20;99.90;;;;;;5033844;28;20047;-80
2023/12/28 01:31:20;;;;;;;8.67;4.60;;;9.20;99.90;;;;;;5032844;28;20096;-79
2023/12/28 01:33:45;;;;;;;8.73;4.80;;;9.20;99.90;;;;;;5035229;28;20088;-79
2023/12/28 01:36:18;;;;;;;7.40;4.87;;;9.20;99.90;;;;;;5013686;28;20156;-79
2023/12/28 01:38:44;;;;;;;7.60;4.60;;;9.20;99.90;;;;;;5027529;28;20053;-79
2023/12/28 01:41:10;;;;;;;6.43;4.60;;;9.20;99.90;;;;;;5035118;28;20060;-79
2023/12/28 01:43:36;;;;;;;5.90;4.60;;;9.10;99.90;;;;;;5037244;28;20030;-79
2023/12/28 01:46:02;;;;;;;5.57;4.87;;;9.00;99.90;;;;;;4996208;28;20052;-79
2023/12/28 01:48:28;;;;;;;6.97;4.93;;;9.00;99.90;;;;;;5034528;28;20042;-79
2023/12/28 01:50:55;;;;;;;6.73;4.33;;;8.90;99.90;;;;;;5035642;28;20088;-79
2023/12/28 01:53:21;;;;;;;6.70;4.50;;;8.90;99.90;;;;;;5017391;28;20120;-79
2023/12/28 01:55:47;;;;;;;7.33;4.70;;;8.90;99.90;;;;;;5035535;28;20065;-79
2023/12/28 01:58:13;;;;;;;6.87;4.67;;;8.90;99.90;;;;;;5012903;28;20045;-81
2023/12/28 02:00:40;;;;;;;5.97;4.63;;;8.90;99.90;;;;;;5038229;28;20131;-79
2023/12/28 02:03:07;;;;;;;9.40;4.60;;;8.90;99.90;;;;;;5030575;28;20060;-79
2023/12/28 02:05:33;;;;;;;8.60;5.20;;;8.90;99.90;;;;;;5013833;28;20056;-79
2023/12/28 02:07:59;;;;;;;10.50;5.27;;;8.80;99.90;;;;;;5032599;28;20053;-79
2023/12/28 02:10:25;;;;;;;7.73;4.87;;;8.90;99.90;;;;;;5036663;28;20171;-79
2023/12/28 02:12:53;;;;;;;7.10;4.50;;;8.90;99.90;;;;;;5013066;28;20053;-79
2023/12/28 02:15:19;;;;;;;9.20;5.03;;;8.90;99.90;;;;;;5030071;28;20606;-80
2023/12/28 02:17:58;;;;;;;7.50;4.90;;;8.90;99.90;;;;;;5036860;28;20049;-79
2023/12/28 02:20:25;;;;;;;7.27;4.90;;;8.80;99.90;;;;;;5038419;28;20045;-79
2023/12/28 02:22:52;;;;;;;8.63;4.90;;;8.80;99.90;;;;;;5038578;28;20341;-80
2023/12/28 02:25:17;;;;;;;7.97;4.83;;;8.80;99.90;;;;;;5038427;28;20044;-79
2023/12/28 02:27:48;;;;;;;8.03;5.10;;;8.70;99.90;;;;;;5042440;28;20506;-79
2023/12/28 02:30:16;;;;;;;9.80;5.03;;;8.70;99.90;;;;;;5035958;28;20171;-79
2023/12/28 02:32:54;;;;;;;9.13;5.07;;;8.70;99.90;;;;;;5040923;28;20045;-79
2023/12/28 02:35:23;;;;;;;10.23;5.37;;;8.70;99.90;;;;;;5039530;28;20037;-78
2023/12/28 02:37:53;;;;;;;10.03;4.90;;;8.70;99.90;;;;;;5020856;28;20589;-78
2023/12/28 02:40:20;;;;;;;9.40;5.10;;;8.70;99.90;;;;;;5034869;28;20574;-79
2023/12/28 02:42:46;;;;;;;7.70;4.77;;;8.80;99.90;;;;;;5040014;28;20057;-79
2023/12/28 02:45:12;;;;;;;12.60;5.03;;;8.80;99.90;;;;;;5014871;28;20416;-79
2023/12/28 02:47:38;;;;;;;10.20;5.20;;;8.80;99.90;;;;;;5038158;28;20053;-79
2023/12/28 02:50:04;;;;;;;14.77;5.37;;;8.80;99.90;;;;;;5028636;28;20457;-78
2023/12/28 02:52:30;;;;;;;12.33;5.00;;;8.80;99.90;;;;;;5016324;28;20071;-79
2023/12/28 02:54:55;;;;;;;10.57;5.17;;;8.80;99.90;;;;;;5039045;28;20105;-79
2023/12/28 02:57:21;;;;;;;10.30;4.70;;;8.80;99.90;;;;;;5035381;28;20046;-80
2023/12/28 02:59:47;;;;;;;9.53;4.93;;;8.80;99.90;;;;;;5037000;28;20056;-80
2023/12/28 03:02:13;;;;;;;9.67;4.70;;;8.90;99.90;;;;;;5036403;28;20034;-77
2023/12/28 03:04:38;;;;;;;11.57;4.90;;;8.90;99.90;;;;;;5037761;28;20068;-78
2023/12/28 03:07:05;;;;;;;10.77;5.20;;;9.00;99.90;;;;;;5033381;28;20088;-79
2023/12/28 03:09:30;;;;;;;9.37;4.50;;;9.00;99.90;;;;;;5024328;28;20076;-79
2023/12/28 03:11:56;;;;;;;8.77;4.63;;;9.10;99.90;;;;;;5036886;28;20045;-79
2023/12/28 03:14:22;;;;;;;10.93;5.00;;;9.10;99.90;;;;;;5031960;28;20076;-78
2023/12/28 03:16:47;;;;;;;13.33;5.40;;;9.20;99.90;;;;;;5018928;28;20053;-79
2023/12/28 03:19:13;;;;;;;9.00;5.03;;;9.20;99.90;;;;;;5036781;28;20045;-79
2023/12/28 03:21:40;;;;;;;9.10;4.50;;;9.20;99.90;;;;;;5031060;28;20071;-79
2023/12/28 03:24:06;;;;;;;11.57;4.57;;;9.20;99.90;;;;;;5016742;28;20119;-80
2023/12/28 03:26:32;;;;;;;10.43;4.60;;;9.30;99.90;;;;;;5020543;28;20057;-79
2023/12/28 03:28:57;;;;;;;7.53;4.33;;;9.30;99.90;;;;;;5038023;28;20412;-78
2023/12/28 03:31:23;;;;;;;6.67;4.30;;;9.40;99.90;;;;;;5034387;28;20102;-78
2023/12/28 03:33:49;;;;;;;8.13;4.40;;;9.40;99.90;;;;;;5037091;28;20049;-79
2023/12/28 03:36:20;;;;;;;9.27;4.50;;;9.40;99.90;;;;;;5017403;28;20633;-77
2023/12/28 03:38:46;;;;;;;9.55;4.30;;;9.40;99.90;;;;;;5037864;28;20046;-78
2023/12/28 03:41:19;;;;;;;11.30;4.87;;;9.40;99.90;;;;;;5035090;28;20053;-79
2023/12/28 03:43:46;;;;;;;11.00;4.67;;;9.50;99.90;;;;;;5017625;28;20060;-78
2023/12/28 03:46:12;;;;;;;9.00;4.23;;;9.50;99.90;;;;;;5021178;28;20049;-79
2023/12/28 03:48:38;;;;;;;7.57;4.03;;;9.50;99.90;;;;;;5036762;28;20041;-79
2023/12/28 03:51:04;;;;;;;6.10;4.40;;;9.50;99.90;;;;;;5032142;28;20144;-79
2023/12/28 03:53:33;;;;;;;9.00;3.97;;;9.50;99.90;;;;;;5021763;28;20560;-79
2023/12/28 03:55:59;;;;;;;10.87;4.00;;;9.60;99.90;;;;;;5036130;28;20048;-79
2023/12/28 03:58:25;;;;;;;6.17;3.70;;;9.60;99.90;;;;;;5034941;28;20567;-80
2023/12/28 04:00:51;;;;;;;7.43;3.70;;;9.60;99.90;;;;;;5035477;28;20053;-79
2023/12/28 04:03:17;;;;;;;12.33;4.30;;;9.70;99.90;;;;;;5035888;28;20042;-79
2023/12/28 04:05:43;;;;;;;5.93;3.63;;;9.70;99.90;;;;;;5037745;28;20052;-79
2023/12/28 04:08:09;;;;;;;13.80;4.47;;;9.80;99.90;;;;;;5034080;28;20476;-79
2023/12/28 04:10:36;;;;;;;7.80;3.30;;;9.80;99.90;;;;;;5036557;28;20045;-80
2023/12/28 04:13:03;;;;;;;10.30;3.47;;;9.70;99.90;;;;;;5030462;28;20049;-78
2023/12/28 04:15:29;;;;;;;9.00;3.77;;;9.70;99.90;;;;;;5035339;28;20075;-80
2023/12/28 04:17:55;;;;;;;6.77;3.47;;;9.70;99.90;;;;;;5036685;28;20049;-80
2023/12/28 04:20:21;;;;;;;10.50;3.90;;;9.70;99.90;;;;;;5015755;28;20044;-80
2023/12/28 04:22:47;;;;;;;11.77;3.70;;;9.70;99.90;;;;;;5021781;28;20468;-79
2023/12/28 04:25:13;;;;;;;8.90;3.60;;;9.70;99.90;;;;;;5035285;28;20049;-80
2023/12/28 04:27:39;;;;;;;11.43;3.53;;;9.80;99.90;;;;;;5033392;28;20394;-79
2023/12/28 04:30:06;;;;;;;8.07;3.27;;;9.80;99.90;;;;;;5035725;28;20051;-79
2023/12/28 04:32:34;;;;;;;12.53;3.73;;;9.80;99.90;;;;;;5037309;28;20046;-79
2023/12/28 04:35:00;;;;;;;10.50;3.30;;;9.90;99.90;;;;;;5032316;28;20124;-79
2023/12/28 04:37:26;;;;;;;9.37;3.70;;;9.90;99.90;;;;;;5035871;28;20196;-79
2023/12/28 04:39:53;;;;;;;8.77;3.50;;;9.90;99.90;;;;;;5036339;28;20504;-79
2023/12/28 04:42:19;;;;;;;10.17;3.70;;;9.80;99.90;;;;;;5039758;28;20076;-80
2023/12/28 04:44:44;;;;;;;11.27;3.63;;;9.90;99.90;;;;;;5034349;28;20467;-79
2023/12/28 04:47:10;;;;;;;8.90;3.73;;;9.80;99.90;;;;;;5038178;28;20060;-79
2023/12/28 04:49:36;;;;;;;9.77;3.73;;;9.80;99.90;;;;;;4990442;28;20056;-80
2023/12/28 04:52:01;;;;;;;10.87;3.50;;;9.80;99.90;;;;;;5034102;28;20568;-80
2023/12/28 04:54:27;;;;;;;7.37;3.60;;;9.80;99.90;;;;;;5033929;28;20100;-80
2023/12/28 04:56:53;;;;;;;8.20;3.10;;;9.80;99.90;;;;;;5039547;28;20053;-79
2023/12/28 04:59:19;;;;;;;9.07;3.57;;;9.90;99.90;;;;;;5035757;28;20041;-80
2023/12/28 05:01:45;;;;;;;10.13;3.93;;;9.90;99.90;;;;;;5036207;28;20060;-80
2023/12/28 05:04:11;;;;;;;9.43;3.30;;;9.90;99.90;;;;;;5032535;28;20067;-81
2023/12/28 05:06:37;;;;;;;9.00;3.50;;;10.00;99.90;;;;;;5034900;28;20055;-81
2023/12/28 05:09:04;;;;;;;11.37;3.33;;;10.00;99.90;;;;;;5030537;28;20056;-80
2023/12/28 05:11:30;;;;;;;10.40;3.23;;;10.10;99.90;;;;;;5032463;28;20037;-80
2023/12/28 05:13:55;;;;;;;11.27;3.40;;;10.10;99.90;;;;;;5037370;28;20133;-80
2023/12/28 05:16:21;;;;;;;11.33;3.43;;;10.10;99.90;;;;;;5034692;28;20049;-80
2023/12/28 05:18:47;;;;;;;16.07;3.80;;;10.20;99.90;;;;;;5033608;28;20110;-81
2023/12/28 05:21:13;;;;;;;14.83;4.07;;;10.20;99.90;;;;;;5036631;28;20107;-80
2023/12/28 05:23:39;;;;;;;11.17;3.57;;;10.30;99.90;;;;;;5036364;28;20041;-80
2023/12/28 05:26:05;;;;;;;9.80;3.07;;;10.30;99.90;;;;;;5036768;28;20569;-81
2023/12/28 05:28:32;;;;;;;13.30;3.03;;;10.30;99.90;;;;;;5012422;28;20049;-80
2023/12/28 05:31:00;;;;;;;10.10;3.20;;;10.30;99.90;;;;;;5039455;28;20048;-80
2023/12/28 05:33:26;;;;;;;10.57;3.40;;;10.40;99.90;;;;;;5014142;28;20072;-80
2023/12/28 05:35:52;;;;;;;15.37;3.40;;;10.40;99.90;;;;;;5032790;28;20052;-80
2023/12/28 05:38:18;;;;;;;13.63;3.37;;;10.40;99.90;;;;;;5034183;28;20049;-78
2023/12/28 05:40:44;;;;;;;9.13;3.17;;;10.40;99.90;;;;;;5035786;28;20080;-80
2023/12/28 05:43:11;;;;;;;9.93;3.50;;;10.50;99.90;;;;;;5036552;28;20061;-79
2023/12/28 05:45:36;;;;;;;11.37;2.93;;;10.40;99.90;;;;;;5033993;28;20041;-83
2023/12/28 05:48:02;;;;;;;11.77;3.27;;;10.40;99.90;;;;;;5019688;28;20068;-81
2023/12/28 05:50:28;;;;;;;11.23;3.47;;;10.50;99.90;;;;;;5031657;28;20037;-81
2023/12/28 05:52:54;;;;;;;13.50;3.60;;;10.50;99.90;;;;;;5033185;28;20047;-80
2023/12/28 05:55:20;;;;;;;10.10;3.20;;;10.50;99.90;;;;;;5031728;28;20045;-79
2023/12/28 05:57:47;;;;;;;10.97;4.07;;;10.50;99.90;;;;;;5034328;28;20053;-80
2023/12/28 06:00:14;;;;;;;11.87;3.07;;;10.50;99.90;;;;;;5035917;28;20064;-81
2023/12/28 06:02:40;;;;;;;12.47;3.50;;;10.60;99.90;;;;;;5018694;28;20061;-80
2023/12/28 06:05:06;;;;;;;11.50;3.37;;;10.60;99.90;;;;;;5015832;28;20072;-81
2023/12/28 06:07:32;;;;;;;11.43;3.70;;;10.60;99.90;;;;;;5030746;28;20042;-80
2023/12/28 06:09:58;;;;;;;11.43;3.30;;;10.60;99.90;;;;;;5033502;28;20126;-80
2023/12/28 06:12:23;;;;;;;13.40;3.80;;;10.60;99.90;;;;;;5030361;28;20116;-79
2023/12/28 06:14:49;;;;;;;9.53;3.03;;;10.60;99.90;;;;;;5031620;28;20052;-81
2023/12/28 06:17:15;;;;;;;17.73;4.03;;;10.60;99.90;;;;;;5018711;28;20061;-81
2023/12/28 06:19:41;;;;;;;13.47;3.90;;;10.60;99.90;;;;;;5032196;28;20137;-80
2023/12/28 06:22:07;;;;;;;14.53;3.43;;;10.70;99.90;;;;;;5020360;28;20319;-80
2023/12/28 06:24:33;;;;;;;13.13;3.33;;;10.70;99.90;;;;;;5032003;28;20044;-80
2023/12/28 06:27:00;;;;;;;16.33;4.27;;;10.70;99.90;;;;;;5030918;28;20042;-82
2023/12/28 06:29:26;;;;;;;18.53;3.70;;;10.70;99.90;;;;;;5035092;28;20156;-79
2023/12/28 06:31:51;;;;;;;10.53;3.57;;;10.70;99.90;;;;;;5043023;28;20036;-80
2023/12/28 06:34:17;;;;;;;11.63;3.63;;;10.70;99.90;;;;;;5043537;28;20041;-80
2023/12/28 06:36:43;;;;;;;10.97;3.37;;;10.70;99.90;;;;;;5040096;28;20113;-80
2023/12/28 06:39:09;;;;;;;13.18;3.30;;;10.60;99.90;;;;;;5020085;28;20038;-80
2023/12/28 06:41:34;;;;;;;15.70;3.97;;;10.60;99.90;;;;;;5042970;28;20056;-79
2023/12/28 06:44:00;;;;;;;11.23;3.67;;;10.60;99.90;;;;;;5045183;28;20468;-80
2023/12/28 06:46:25;;;;;;;14.57;3.58;;;10.60;99.90;;;;;;5044280;28;20049;-80
2023/12/28 06:48:51;;;;;;;14.23;3.50;;;10.60;99.90;;;;;;5023520;28;20180;-80
2023/12/28 06:51:18;;;;;;;16.47;3.60;;;10.60;99.90;;;;;;5019574;28;20044;-80
2023/12/28 06:53:44;;;;;;;13.73;3.40;;;10.60;99.90;;;;;;5024845;28;20099;-79
2023/12/28 06:56:10;;;;;;;12.50;3.45;;;10.60;99.90;;;;;;5019861;28;20183;-80
2023/12/28 06:58:35;;;;;;;14.70;3.70;;;10.70;99.90;;;;;;5037292;28;20461;-81
2023/12/28 07:01:04;;;;;;;11.30;3.17;;;10.70;99.90;;;;;;5044942;28;20040;-80
2023/12/28 07:03:32;;;;;;;17.00;3.63;;;10.60;99.90;;;;;;5039954;28;20041;-81
2023/12/28 07:05:59;;;;;;;13.00;3.37;;;10.60;99.90;;;;;;5033970;28;20415;-81
2023/12/28 07:08:24;;;;;;;10.73;3.27;;;10.60;99.90;;;;;;5037079;28;20052;-81
2023/12/28 07:10:50;;;;;;;11.27;3.17;;;10.60;99.90;;;;;;5016171;28;20328;-81
2023/12/28 07:13:16;;;;;;;14.65;3.72;;;10.60;99.90;;;;;;5038849;28;20041;-77
2023/12/28 07:15:41;;;;;;;10.43;3.93;;;10.60;99.90;;;;;;5042283;28;20060;-76
2023/12/28 07:18:07;;;;;;;9.03;3.10;;;10.60;99.90;;;;;;5021319;28;20409;-77
2023/12/28 07:20:33;;;;;;;15.73;4.23;;;10.60;99.90;;;;;;5052354;28;20052;-76
2023/12/28 07:22:58;;;;;;;11.10;3.23;;;10.60;99.90;;;;;;5041727;28;20080;-75
2023/12/28 07:25:24;;;;;;;13.83;3.43;;;10.70;99.90;;;;;;5027367;28;20053;-75
2023/12/28 07:27:50;;;;;;;14.87;3.90;;;10.70;99.90;;;;;;5025935;28;20037;-76
2023/12/28 07:30:16;;;;;;;15.47;4.00;;;10.80;99.90;;;;;;5049982;28;20144;-76
2023/12/28 07:32:43;;;;;;;13.00;3.77;;;10.80;99.90;;;;;;5040020;28;20044;-77
2023/12/28 07:35:09;;;;;;;15.73;3.73;;;10.90;99.90;;;;;;5049241;28;20096;-76
2023/12/28 07:37:35;;;;;;;14.68;3.40;;;10.80;99.90;;;;;;5046751;28;20061;-76
2023/12/28 07:40:03;;;;;;;14.43;4.40;;;10.80;99.90;;;;;;5044192;28;20083;-75
2023/12/28 07:42:28;;;;;;;14.87;3.53;;;10.80;99.90;;;;;;5020085;28;20053;-77
2023/12/28 07:44:54;;;;;;;14.60;3.67;;;10.80;99.90;;;;;;5047789;28;20052;-77
2023/12/28 07:47:20;;;;;;;16.73;4.07;;;10.90;99.90;;;;;;5041795;28;20079;-76
2023/12/28 07:49:46;;;;;;;16.13;3.58;;;10.90;99.90;;;;;;5041746;28;20741;-76
2023/12/28 07:52:11;;;;;;;12.60;3.67;;;10.90;99.90;;;;;;5032361;28;20068;-76
2023/12/28 07:54:37;;;;;;;16.03;4.07;;;10.90;99.90;;;;;;5043742;28;20033;-77
2023/12/28 07:57:03;;;;;;;18.27;4.32;;;10.90;99.90;;;;;;5038375;28;20053;-76
2023/12/28 07:59:28;;;;;;;17.45;4.50;;;10.90;99.90;;;;;;5024416;28;20041;-76
2023/12/28 08:01:55;;;;;;;18.10;4.60;;;10.90;99.90;;;;;;5030434;28;20600;-75
2023/12/28 08:04:21;;;;;;;15.17;4.27;;;10.90;99.90;;;;;;5039547;28;20060;-83
2023/12/28 08:06:46;;;;;;;17.50;4.60;;;10.90;99.90;;;;;;5036092;28;20584;-84
2023/12/28 08:09:12;;;;;;;14.70;4.13;;;10.90;99.90;;;;;;5037382;28;20048;-74
2023/12/28 08:11:38;;;;;;;15.53;4.20;;;11.00;99.90;;;;;;5042275;28;20141;-74
2023/12/28 08:14:04;;;;;;;17.07;4.03;;;11.00;99.90;;;;;;5050097;28;20063;-76
2023/12/28 08:16:30;;;;;;;19.15;4.53;;;11.00;99.90;;;;;;5045086;28;20084;-75
2023/12/28 08:18:57;;;;;;;16.25;3.90;;;11.00;99.90;;;;;;5036904;28;20053;-77
2023/12/28 08:21:23;;;;;;;15.63;4.43;;;11.00;99.90;;;;;;5038648;28;20045;-78
2023/12/28 08:23:49;;;;;;;21.60;5.15;;;11.00;99.90;;;;;;5041173;28;20045;-80
2023/12/28 08:26:14;;;;;;;15.93;4.27;;;11.00;99.90;;;;;;5033521;28;20045;-81
2023/12/28 08:28:40;;;;;;;18.00;4.50;;;11.00;99.90;;;;;;5044215;28;20056;-80
2023/12/28 08:31:08;;;;;;;21.23;4.97;;;11.00;99.90;;;;;;5029211;28;20045;-81
2023/12/28 08:33:35;;;;;;;20.58;5.03;;;11.00;99.90;;;;;;5024033;28;20053;-81
2023/12/28 08:36:03;;;;;;;26.40;5.50;;;11.00;99.90;;;;;;5044743;28;20095;-78
2023/12/28 08:38:28;;;;;;;22.73;4.57;;;11.00;99.90;;;;;;5025084;28;20045;-79
2023/12/28 08:40:54;;;;;;;20.27;4.67;;;11.00;99.90;;;;;;5052598;28;20076;-76
2023/12/28 08:43:20;;;;;;;17.23;4.90;;;10.90;99.90;;;;;;5023369;28;20065;-79
2023/12/28 08:45:45;;;;;;;21.00;4.70;;;10.90;99.90;;;;;;5033398;28;20136;-79
2023/12/28 08:48:11;;;;;;;18.38;4.75;;;10.90;99.90;;;;;;5046097;28;20379;-78
2023/12/28 08:50:37;;;;;;;17.63;4.63;;;10.90;99.90;;;;;;5040046;28;20037;-77
2023/12/28 08:53:02;;;;;;;21.07;5.23;;;11.00;99.90;;;;;;5030067;28;20077;-78
2023/12/28 08:55:28;;;;;;;19.35;4.55;;;11.00;99.90;;;;;;5031096;28;20128;-76
2023/12/28 08:57:54;;;;;;;20.80;4.90;;;11.00;99.90;;;;;;5029758;28;20092;-77
2023/12/28 09:00:20;;;;;;;16.60;4.55;;;11.00;99.90;;;;;;5016037;28;20044;-77
2023/12/28 09:02:45;;;;;;;22.95;4.70;;;11.00;99.90;;;;;;5031247;28;21046;-78
2023/12/28 09:05:11;;;;;;;19.98;4.55;;;11.00;99.90;;;;;;5015982;28;20041;-77
2023/12/28 09:07:42;;;;;;;17.57;4.83;;;11.00;99.90;;;;;;5016796;28;20075;-75
2023/12/28 09:10:12;;;;;;;20.23;5.30;;;11.10;99.90;;;;;;5024609;28;20089;-75
2023/12/28 09:12:38;;;;;;;15.98;4.35;;;11.10;99.90;;;;;;5030111;28;20315;-76
2023/12/28 09:15:07;;;;;;;22.67;5.15;;;11.10;99.90;;;;;;5029182;28;20080;-77
2023/12/28 09:17:34;;;;;;;22.85;5.03;;;11.10;99.90;;;;;;5041150;28;20407;-77
2023/12/28 09:20:01;;;;;;;19.20;4.53;;;11.10;99.90;;;;;;5032297;28;20056;-76
2023/12/28 09:22:27;;;;;;;18.60;4.70;;;11.10;99.90;;;;;;5033893;28;20103;-76
2023/12/28 09:24:52;;;;;;;20.80;5.00;;;11.10;99.90;;;;;;5031304;28;20067;-77
2023/12/28 09:27:18;;;;;;;19.52;4.50;;;11.00;99.90;;;;;;5043975;28;20045;-76
2023/12/28 09:29:44;;;;;;;20.43;5.07;;;11.10;99.90;;;;;;5025857;28;20064;-77
2023/12/28 09:32:10;;;;;;;18.92;4.88;;;11.00;99.90;;;;;;5044527;28;20053;-77
2023/12/28 09:34:36;;;;;;;24.25;5.30;;;11.10;99.90;;;;;;5046995;28;20076;-76
2023/12/28 09:37:01;;;;;;;22.50;4.77;;;11.10;99.90;;;;;;5021099;28;20045;-78
2023/12/28 09:39:27;;;;;;;19.38;4.50;;;11.10;99.90;;;;;;5006752;28;20048;-77
2023/12/28 09:42:09;;;;;;;19.67;4.95;;;11.20;99.90;;;;;;5041424;28;20068;-78
2023/12/28 09:44:38;;;;;;;18.67;4.40;;;11.20;99.90;;;;;;5028843;28;20462;-77
2023/12/28 09:47:06;;;;;;;22.73;4.83;;;11.20;99.90;;;;;;5017970;28;20041;-77
2023/12/28 09:49:33;;;;;;;17.05;4.45;;;11.30;99.90;;;;;;5038020;28;20152;-78
2023/12/28 09:52:00;;;;;;;18.33;4.40;;;11.20;99.90;;;;;;5045393;28;20502;-79
2023/12/28 09:54:25;;;;;;;17.27;4.47;;;11.30;99.90;;;;;;5032670;28;20057;-77
2023/12/28 09:56:52;;;;;;;15.70;4.17;;;11.30;99.90;;;;;;5040391;28;20041;-76
2023/12/28 09:59:20;;;;;;;23.60;5.72;;;11.30;99.90;;;;;;5040222;28;20191;-77
2023/12/28 10:01:47;;;;;;;15.07;4.65;;;11.30;99.90;;;;;;5048189;28;20059;-76
2023/12/28 10:04:14;;;;;;;21.10;4.40;;;11.30;99.90;;;;;;5007739;28;20048;-84
2023/12/28 10:06:40;;;;;;;19.90;4.70;;;11.30;99.90;;;;;;5039329;28;20539;-82
2023/12/28 10:09:07;;;;;;;16.33;4.78;;;11.30;99.90;;;;;;5045652;28;20077;-81
2023/12/28 10:11:33;;;;;;;15.48;4.60;;;11.40;99.90;;;;;;5026785;28;20106;-80
2023/12/28 10:13:59;;;;;;;20.40;5.03;;;11.30;99.90;;;;;;5048018;28;20044;-80
2023/12/28 10:16:26;;;;;;;17.80;4.82;;;11.40;99.90;;;;;;5039991;28;20085;-75
2023/12/28 10:18:52;;;;;;;23.00;5.10;;;11.40;99.90;;;;;;5040469;28;20118;-80
2023/12/28 10:21:17;;;;;;;27.47;4.90;;;11.40;99.90;;;;;;5025620;28;20104;-78
2023/12/28 10:23:43;;;;;;;14.90;4.03;;;11.40;99.90;;;;;;5038414;28;20083;-78
2023/12/28 10:26:10;;;;;;;21.48;4.47;;;11.40;99.90;;;;;;5050548;28;20072;-80
2023/12/28 10:28:39;;;;;;;28.67;5.80;;;11.40;99.90;;;;;;5034797;28;20048;-78
2023/12/28 10:31:05;;;;;;;16.17;4.68;;;11.40;99.90;;;;;;5041905;28;20064;-81
2023/12/28 10:33:35;;;;;;;15.52;4.18;;;11.40;99.90;;;;;;5043683;28;20068;-78
2023/12/28 10:36:06;;;;;;;22.17;4.97;;;11.40;99.90;;;;;;5031643;28;20081;-80
2023/12/28 10:38:38;;;;;;;18.10;4.10;;;11.40;99.90;;;;;;5037827;28;20145;-79
2023/12/28 10:41:06;;;;;;;;;;;11.40;99.90;;;;;;5034923;28;20037;-80
2023/12/28 10:43:56;;;;;;;19.67;4.53;;;11.50;99.90;;;;;;5040936;28;19921;-80
2023/12/28 10:46:32;;;;;;;22.45;4.40;;;11.50;99.90;;;;;;5022678;28;20048;-79
2023/12/28 10:49:20;;;;;;;16.15;4.78;;;11.40;99.90;;;;;;5033914;28;20045;-79
2023/12/28 10:51:51;;;;;;;16.20;4.60;;;11.50;99.90;;;;;;5010931;28;20626;-81
2023/12/28 10:55:13;;;;;;;23.05;4.60;;;11.50;99.90;;;;;;5027507;28;20080;-78
2023/12/28 10:57:57;;;;;;;22.15;5.18;;;11.50;99.90;;;;;;4950526;28;20047;-79
2023/12/28 11:00:25;;;;;;;21.10;4.80;;;11.50;99.90;;;;;;5008842;28;20548;-79
2023/12/28 11:02:58;;;;;;;18.33;4.80;;;11.50;99.90;;;;;;5018422;28;20448;-79
2023/12/28 11:05:26;;;;;;;15.75;4.75;;;11.40;99.90;;;;;;4997894;28;20374;-79
2023/12/28 11:07:56;;;;;;;17.73;4.43;;;11.50;99.90;;;;;;5018760;28;20072;-80
2023/12/28 11:10:24;;;;;;;19.15;4.70;;;11.60;99.90;;;;;;4998057;28;20539;-79
2023/12/28 11:12:53;;;;;;;14.50;4.22;;;11.60;99.90;;;;;;5014997;28;20045;-79
2023/12/28 11:15:19;;;;;;;16.27;4.57;;;11.60;99.90;;;;;;5034882;28;20060;-80
2023/12/28 11:17:45;;;;;;;19.25;4.55;;;11.50;99.90;;;;;;5033831;28;20511;-81
2023/12/28 11:20:11;;;;;;;14.80;4.45;;;11.60;99.90;;;;;;5038540;28;20091;-80
2023/12/28 11:22:38;;;;;;;16.45;4.70;;;11.60;99.90;;;;;;5039746;28;20054;-80
2023/12/28 11:25:06;;;;;;;17.38;4.93;;;11.60;99.90;;;;;;5034262;28;20084;-75
2023/12/28 11:27:36;;;;;;;19.10;4.82;;;11.60;99.90;;;;;;5036624;28;20038;-79
2023/12/28 11:30:04;;;;;;;18.48;5.00;;;11.60;99.90;;;;;;5045488;28;20077;-80
2023/12/28 11:32:33;;;;;;;15.98;4.25;;;11.50;99.90;;;;;;5028676;28;20057;-80
2023/12/28 11:34:59;;;;;;;18.00;4.20;;;11.60;99.90;;;;;;5056236;28;20041;-78
2023/12/28 11:37:27;;;;;;;16.30;4.05;;;11.50;99.90;;;;;;5026711;28;20295;-80
2023/12/28 11:39:54;;;;;;;19.13;4.60;;;11.50;99.90;;;;;;5052820;28;20049;-80
2023/12/28 11:42:22;;;;;;;21.83;4.22;;;11.50;99.90;;;;;;5042373;28;20075;-77
2023/12/28 11:44:52;;;;;;;17.83;4.30;;;11.50;99.90;;;;;;5011028;28;20132;-78
2023/12/28 11:47:27;;;;;;;11.52;4.20;;;11.40;99.90;;;;;;5039001;28;20121;-79
2023/12/28 11:49:54;;;;;;;16.27;5.13;;;11.40;99.90;;;;;;5010056;28;20061;-80
2023/12/28 11:52:27;;;;;;;19.67;3.75;;;11.40;99.90;;;;;;5035712;28;20042;-80
2023/12/28 11:54:53;;;;;;;17.55;4.40;;;11.40;99.90;;;;;;5041320;28;20045;-80
2023/12/28 11:57:19;;;;;;;18.95;4.22;;;11.40;99.90;;;;;;5044511;28;20091;-79
2023/12/28 11:59:45;;;;;;;20.80;4.68;;;11.50;99.90;;;;;;5035854;28;20053;-79
2023/12/28 12:02:11;;;;;;;15.77;4.00;;;11.50;99.90;;;;;;5034521;28;20531;-79
2023/12/28 12:04:37;;;;;;;15.13;3.95;;;11.50;99.90;;;;;;5032029;28;20073;-80
2023/12/28 12:07:04;;;;;;;13.27;4.07;;;11.50;99.90;;;;;;5032724;28;20052;-79
2023/12/28 12:09:34;;;;;;;18.95;4.63;;;11.50;99.90;;;;;;5040024;28;20050;-80
2023/12/28 12:12:01;;;;;;;15.95;4.18;;;11.50;99.90;;;;;;5031007;28;20050;-79
2023/12/28 12:14:28;;;;;;;14.75;4.28;;;11.50;99.90;;;;;;5026323;28;20372;-78
2023/12/28 12:16:58;;;;;;;17.40;5.65;;;11.50;99.90;;;;;;5040747;28;20056;-80
2023/12/28 12:19:25;;;;;;;21.65;4.90;;;11.60;99.90;;;;;;5033899;28;20052;-79
2023/12/28 12:21:52;;;;;;;18.50;4.68;;;11.50;99.90;;;;;;5032886;28;20436;-80
2023/12/28 12:24:18;;;;;;;16.27;4.78;;;11.50;99.90;;;;;;5033217;28;20053;-80
2023/12/28 12:26:46;;;;;;;19.42;4.88;;;11.50;99.90;;;;;;5033552;28;20083;-79
2023/12/28 12:29:11;;;;;;;19.55;4.60;;;11.50;99.90;;;;;;5007746;28;20455;-79
2023/12/28 12:31:41;;;;;;;18.73;4.35;;;11.50;99.90;;;;;;5027293;28;20136;-78
2023/12/28 12:34:07;;;;;;;19.05;4.63;;;11.50;99.90;;;;;;5037580;28;20042;-79
2023/12/28 12:36:34;;;;;;;19.83;4.63;;;11.50;99.90;;;;;;5026588;28;20121;-81
2023/12/28 12:38:59;;;;;;;15.85;4.50;;;11.50;99.90;;;;;;5044622;28;20145;-81
2023/12/28 12:41:26;;;;;;;20.58;5.85;;;11.50;99.90;;;;;;5031332;28;21924;-81
2023/12/28 12:43:52;;;;;;;20.92;5.15;;;11.50;99.90;;;;;;5015087;28;20041;-81